Time;durP1;ratioP1;P1;durP2;ratioP2;P2;SDS_P1;SDS_P2;PMS_P1;PMS_P2;Temp;Humidity;BMP_temperature;BMP_pressure;BME280_temperature;BME280_humidity;BME280_pressure;Samples;Min_cycle;Max_cycle;Signal;HPM_P1;HPM_P2
2022/07/17 00:01:07;;;;;;;4.60;2.17;;;18.40;99.90;;;;;;5010635;28;20452;-79
2022/07/17 00:03:54;;;;;;;7.10;2.00;;;18.40;99.90;;;;;;5005414;28;20472;-78
2022/07/17 00:06:41;;;;;;;2.40;2.20;;;18.40;99.90;;;;;;5018055;28;20469;-79
2022/07/17 00:09:25;;;;;;;3.30;2.30;;;18.30;99.90;;;;;;4990452;28;20502;-79
2022/07/17 00:12:09;;;;;;;6.80;2.70;;;18.30;99.90;;;;;;4990280;28;20436;-79
2022/07/17 00:15:16;;;;;;;2.13;1.93;;;18.30;99.90;;;;;;4985202;28;20548;-79
2022/07/17 00:18:03;;;;;;;2.53;2.33;;;18.30;99.90;;;;;;4951722;28;20430;-78
2022/07/17 00:20:47;;;;;;;2.23;2.03;;;18.30;99.90;;;;;;4952433;29;20615;-78
2022/07/17 00:23:33;;;;;;;1.83;1.50;;;18.20;99.90;;;;;;4945845;28;20415;-81
2022/07/17 00:26:19;;;;;;;3.00;2.00;;;18.20;99.90;;;;;;4925403;29;20482;-81
2022/07/17 00:29:05;;;;;;;2.23;1.90;;;18.20;99.90;;;;;;4902893;29;20419;-82
2022/07/17 00:32:04;;;;;;;2.53;2.30;;;18.10;99.90;;;;;;4907211;29;20436;-82
2022/07/17 00:34:48;;;;;;;4.93;2.53;;;18.10;99.90;;;;;;4890278;29;21007;-81
2022/07/17 00:37:44;;;;;;;6.27;2.27;;;18.00;99.90;;;;;;4890026;29;20453;-81
2022/07/17 00:40:30;;;;;;;2.63;2.00;;;18.00;99.90;;;;;;4883776;29;20413;-81
2022/07/17 00:43:15;;;;;;;2.20;2.03;;;17.90;99.90;;;;;;4883406;29;20460;-82
2022/07/17 00:46:08;;;;;;;2.80;2.50;;;17.90;99.90;;;;;;4865025;29;20439;-82
2022/07/17 00:48:52;;;;;;;4.43;2.50;;;17.90;99.90;;;;;;4852902;29;20495;-81
2022/07/17 00:51:38;;;;;;;4.20;3.00;;;17.90;99.90;;;;;;4868128;29;20436;-81
2022/07/17 00:54:28;;;;;;;2.90;2.70;;;17.80;99.90;;;;;;4868071;29;20899;-81
2022/07/17 00:57:26;;;;;;;2.60;2.40;;;17.60;99.90;;;;;;4849081;29;20431;-81
2022/07/17 01:00:32;;;;;;;2.37;2.17;;;17.50;99.90;;;;;;4824980;29;20471;-81
2022/07/17 01:03:20;;;;;;;2.13;2.03;;;17.40;99.90;;;;;;4838151;29;20462;-81
2022/07/17 01:06:07;;;;;;;2.77;2.57;;;17.30;99.90;;;;;;4854995;29;20416;-81
2022/07/17 01:08:55;;;;;;;2.50;2.30;;;17.30;99.90;;;;;;4874029;29;21063;-81
2022/07/17 01:11:44;;;;;;;3.53;1.87;;;17.20;99.90;;;;;;4858626;29;20426;-81
2022/07/17 01:14:31;;;;;;;4.33;2.60;;;17.30;99.90;;;;;;4855018;29;20428;-82
2022/07/17 01:17:38;;;;;;;2.90;2.50;;;17.40;99.90;;;;;;4868776;29;20439;-82
2022/07/17 01:20:24;;;;;;;3.60;3.20;;;17.50;99.90;;;;;;4881599;29;20410;-81
2022/07/17 01:23:09;;;;;;;4.97;2.70;;;17.40;99.90;;;;;;4872176;29;20410;-82
2022/07/17 01:25:56;;;;;;;3.70;2.20;;;17.30;99.90;;;;;;4871471;29;20411;-81
2022/07/17 01:29:02;;;;;;;5.43;2.60;;;17.30;99.90;;;;;;4923351;29;20466;-81
2022/07/17 01:31:49;;;;;;;5.33;3.10;;;17.30;99.90;;;;;;4938854;29;20477;-82
2022/07/17 01:34:35;;;;;;;2.27;2.10;;;17.20;99.90;;;;;;4938386;29;20408;-81
2022/07/17 01:37:21;;;;;;;2.80;2.27;;;17.20;99.90;;;;;;4944378;29;20426;-81
2022/07/17 01:40:12;;;;;;;1.83;1.60;;;17.20;99.90;;;;;;4925000;29;20419;-81
2022/07/17 01:43:22;;;;;;;3.17;2.33;;;17.20;99.90;;;;;;4925237;29;20492;-81
2022/07/17 01:46:18;;;;;;;4.50;2.73;;;17.10;99.90;;;;;;4841441;29;20445;-81
2022/07/17 01:49:03;;;;;;;2.00;1.90;;;16.90;99.90;;;;;;4867541;29;20520;-81
2022/07/17 01:51:52;;;;;;;3.67;2.80;;;16.90;99.90;;;;;;4892941;29;20501;-81
2022/07/17 01:54:41;;;;;;;2.30;2.13;;;16.90;99.90;;;;;;4905523;29;20412;-81
2022/07/17 01:57:28;;;;;;;2.80;2.50;;;16.90;99.90;;;;;;4892251;29;20957;-82
2022/07/17 02:00:18;;;;;;;3.67;2.60;;;16.90;99.90;;;;;;4899885;29;20456;-81
2022/07/17 02:03:02;;;;;;;7.10;2.70;;;16.80;99.90;;;;;;4891517;29;20519;-81
2022/07/17 02:05:48;;;;;;;13.00;2.70;;;16.70;99.90;;;;;;4915887;29;20464;-82
2022/07/17 02:08:35;;;;;;;4.03;2.30;;;16.70;99.90;;;;;;4929696;29;20455;-81
2022/07/17 02:11:32;;;;;;;2.63;2.40;;;16.80;99.90;;;;;;4943134;29;20410;-81
2022/07/17 02:14:23;;;;;;;2.67;2.47;;;16.80;99.90;;;;;;4969295;28;20929;-82
2022/07/17 02:17:07;;;;;;;3.70;1.93;;;16.70;99.90;;;;;;4967931;28;20409;-81
2022/07/17 02:19:54;;;;;;;5.53;2.83;;;16.70;99.90;;;;;;4953773;28;20409;-81
2022/07/17 02:22:41;;;;;;;7.17;2.40;;;16.60;99.90;;;;;;4957621;28;20430;-82
2022/07/17 02:25:29;;;;;;;3.90;2.17;;;16.60;99.90;;;;;;5031607;28;20482;-82
2022/07/17 02:28:15;;;;;;;2.43;2.20;;;16.50;99.90;;;;;;5032292;28;20456;-82
2022/07/17 02:31:06;;;;;;;3.27;2.60;;;16.50;99.90;;;;;;5050535;28;20401;-81
2022/07/17 02:33:50;;;;;;;1.90;1.80;;;16.40;99.90;;;;;;5024796;28;20515;-82
2022/07/17 02:36:36;;;;;;;3.60;2.00;;;16.50;99.90;;;;;;5081676;28;20449;-82
2022/07/17 02:39:20;;;;;;;2.47;2.27;;;16.40;99.90;;;;;;5082041;28;20312;-81
2022/07/17 02:42:07;;;;;;;2.23;1.97;;;16.40;99.90;;;;;;5044824;28;20392;-82
2022/07/17 02:44:54;;;;;;;2.17;1.97;;;16.40;99.90;;;;;;5066935;28;20442;-82
2022/07/17 02:47:59;;;;;;;2.03;1.80;;;16.30;99.90;;;;;;5066196;28;20436;-81
2022/07/17 02:50:52;;;;;;;2.53;2.33;;;16.30;99.90;;;;;;5059838;28;20398;-81
2022/07/17 02:53:56;;;;;;;3.07;2.33;;;16.30;99.90;;;;;;5008804;28;20400;-82
2022/07/17 02:56:42;;;;;;;3.53;2.60;;;16.30;99.90;;;;;;5006588;28;20460;-81
2022/07/17 02:59:27;;;;;;;9.00;2.10;;;16.30;99.90;;;;;;4991984;28;20907;-82
2022/07/17 03:02:14;;;;;;;5.77;2.30;;;16.20;99.90;;;;;;5045212;28;20414;-82
2022/07/17 03:04:59;;;;;;;3.93;2.87;;;16.20;99.90;;;;;;5030805;28;20405;-81
2022/07/17 03:07:44;;;;;;;3.23;2.50;;;16.20;99.90;;;;;;4999609;28;20952;-82
2022/07/17 03:10:30;;;;;;;3.00;2.80;;;16.10;99.90;;;;;;4999914;28;20495;-82
2022/07/17 03:13:17;;;;;;;3.13;2.33;;;16.00;99.90;;;;;;4986168;28;20405;-81
2022/07/17 03:16:02;;;;;;;3.10;2.37;;;15.90;99.90;;;;;;5000212;28;20496;-81
2022/07/17 03:18:52;;;;;;;6.17;3.43;;;15.80;99.90;;;;;;4982316;28;20933;-82
2022/07/17 03:21:37;;;;;;;2.40;2.20;;;15.90;99.90;;;;;;4999468;28;20480;-81
2022/07/17 03:24:21;;;;;;;3.20;2.70;;;15.90;99.90;;;;;;4999964;28;20929;-82
2022/07/17 03:27:08;;;;;;;2.43;2.23;;;15.90;99.90;;;;;;4998319;28;20444;-82
2022/07/17 03:29:57;;;;;;;2.37;2.20;;;15.90;99.90;;;;;;4999043;28;20409;-81
2022/07/17 03:32:43;;;;;;;8.00;2.53;;;15.90;99.90;;;;;;4991700;28;20412;-81
2022/07/17 03:35:27;;;;;;;3.13;2.80;;;15.90;99.90;;;;;;4980327;28;20929;-81
2022/07/17 03:38:33;;;;;;;3.57;2.80;;;15.90;99.90;;;;;;5000879;28;20577;-81
2022/07/17 03:41:19;;;;;;;2.40;2.20;;;15.80;99.90;;;;;;4999532;28;20539;-81
2022/07/17 03:44:06;;;;;;;9.83;3.43;;;15.80;99.90;;;;;;5011802;28;20465;-81
2022/07/17 03:46:51;;;;;;;4.03;3.20;;;15.80;99.90;;;;;;5033529;28;20471;-81
2022/07/17 03:49:36;;;;;;;3.40;3.10;;;15.70;99.90;;;;;;5050156;28;20409;-81
2022/07/17 03:52:22;;;;;;;2.50;2.30;;;15.70;99.90;;;;;;5058098;28;20409;-81
2022/07/17 03:55:07;;;;;;;4.00;2.80;;;15.70;99.90;;;;;;5045058;28;20428;-81
2022/07/17 03:58:14;;;;;;;8.27;2.73;;;15.70;99.90;;;;;;5044079;28;20762;-81
2022/07/17 04:01:21;;;;;;;7.47;2.40;;;15.70;99.90;;;;;;5009617;28;20458;-82
2022/07/17 04:04:07;;;;;;;6.53;3.30;;;15.70;99.90;;;;;;4964903;28;20417;-81
2022/07/17 04:06:52;;;;;;;3.73;3.00;;;15.60;99.90;;;;;;4981151;28;20412;-82
2022/07/17 04:09:43;;;;;;;3.13;2.23;;;15.60;99.90;;;;;;4998044;28;20412;-81
2022/07/17 04:12:52;;;;;;;2.87;2.67;;;15.70;99.90;;;;;;4957641;28;20494;-81
2022/07/17 04:18:45;;;;;;;3.67;2.13;;;15.70;99.90;;;;;;4920736;29;21038;-82
2022/07/17 04:21:29;;;;;;;6.90;2.50;;;15.60;99.90;;;;;;4908303;29;20476;-80
2022/07/17 04:24:17;;;;;;;3.87;2.23;;;15.60;99.90;;;;;;4914819;29;20412;-82
2022/07/17 04:27:03;;;;;;;2.90;2.57;;;15.60;99.90;;;;;;4921708;29;20492;-81
2022/07/17 04:29:49;;;;;;;3.73;2.43;;;15.70;99.90;;;;;;4921154;29;20437;-81
2022/07/17 04:32:34;;;;;;;3.90;2.20;;;15.60;99.90;;;;;;4894806;29;20993;-81
2022/07/17 04:35:18;;;;;;;2.47;2.27;;;15.60;99.90;;;;;;4926589;29;20432;-81
2022/07/17 04:38:05;;;;;;;4.70;2.80;;;15.40;99.90;;;;;;4928803;29;20407;-82
2022/07/17 04:40:53;;;;;;;5.50;2.47;;;15.50;99.90;;;;;;4930633;29;20447;-81
2022/07/17 04:43:42;;;;;;;3.40;2.60;;;15.40;99.90;;;;;;4944359;29;20483;-82
2022/07/17 04:46:27;;;;;;;6.13;2.67;;;15.50;99.90;;;;;;4924775;29;20435;-81
2022/07/17 04:49:13;;;;;;;2.60;1.77;;;15.60;99.90;;;;;;4918186;29;20455;-82
2022/07/17 04:52:00;;;;;;;7.00;2.70;;;15.70;99.90;;;;;;4943567;29;20403;-82
2022/07/17 04:54:44;;;;;;;1.73;1.63;;;15.80;99.90;;;;;;4924429;29;20491;-81
2022/07/17 04:57:36;;;;;;;2.40;2.20;;;15.80;99.90;;;;;;4957406;28;20486;-81
2022/07/17 05:00:22;;;;;;;2.40;2.20;;;15.90;99.90;;;;;;5014076;28;20474;-81
2022/07/17 05:03:06;;;;;;;2.03;1.83;;;15.90;99.90;;;;;;5007324;28;20418;-81
2022/07/17 05:05:54;;;;;;;3.90;1.90;;;16.00;99.90;;;;;;5012935;28;20414;-78
2022/07/17 05:08:41;;;;;;;2.40;2.20;;;16.10;99.90;;;;;;5014303;28;20475;-78
2022/07/17 05:11:26;;;;;;;2.50;2.10;;;16.20;99.90;;;;;;5014026;28;20406;-78
2022/07/17 05:14:12;;;;;;;7.53;2.07;;;16.20;99.90;;;;;;5013907;28;20407;-78
2022/07/17 05:16:57;;;;;;;3.23;2.23;;;16.30;99.90;;;;;;5013876;28;20839;-78
2022/07/17 05:19:43;;;;;;;2.80;2.43;;;16.30;99.90;;;;;;5013897;28;20384;-78
2022/07/17 05:22:28;;;;;;;5.60;2.50;;;16.30;99.90;;;;;;5033374;28;20402;-78
2022/07/17 05:25:16;;;;;;;2.13;2.00;;;16.40;99.90;;;;;;5047049;28;20545;-78
2022/07/17 05:28:04;;;;;;;2.37;2.17;;;16.50;99.90;;;;;;5047627;28;20438;-78
2022/07/17 05:30:54;;;;;;;3.43;2.30;;;16.50;99.90;;;;;;5049486;28;20485;-78
2022/07/17 05:33:39;;;;;;;2.63;2.27;;;16.60;99.90;;;;;;5053044;28;20445;-78
2022/07/17 05:36:25;;;;;;;6.03;2.40;;;16.60;99.90;;;;;;5052419;28;20442;-78
2022/07/17 05:39:10;;;;;;;2.13;1.53;;;16.60;99.90;;;;;;5068723;28;20162;-78
2022/07/17 05:41:56;;;;;;;3.80;1.97;;;16.60;99.90;;;;;;5069771;28;20394;-78
2022/07/17 05:44:43;;;;;;;1.80;1.70;;;16.70;99.90;;;;;;5042013;28;20937;-78
2022/07/17 05:47:50;;;;;;;2.60;1.90;;;16.80;99.90;;;;;;5029980;28;20466;-78
2022/07/17 05:50:36;;;;;;;2.80;1.70;;;16.90;99.90;;;;;;5001831;28;20420;-78
2022/07/17 05:53:21;;;;;;;2.20;2.00;;;17.00;99.90;;;;;;5002526;28;20460;-78
2022/07/17 05:56:07;;;;;;;2.10;1.90;;;16.90;99.90;;;;;;4990685;28;20486;-78
2022/07/17 05:58:52;;;;;;;3.97;2.50;;;16.90;99.90;;;;;;4965600;28;20435;-80
2022/07/17 06:01:37;;;;;;;4.60;2.10;;;16.90;99.90;;;;;;4964831;29;20485;-79
2022/07/17 06:04:30;;;;;;;4.60;2.03;;;16.90;99.90;;;;;;4965026;29;20418;-81
2022/07/17 06:07:17;;;;;;;3.50;1.83;;;17.00;99.90;;;;;;4941442;29;20469;-79
2022/07/17 06:10:06;;;;;;;2.17;1.93;;;17.10;99.90;;;;;;4903502;29;20553;-78
2022/07/17 06:12:53;;;;;;;3.00;1.77;;;17.10;99.90;;;;;;4904784;29;20412;-79
2022/07/17 06:15:39;;;;;;;2.20;1.93;;;17.20;99.90;;;;;;4929839;29;20398;-79
2022/07/17 06:18:45;;;;;;;2.83;2.37;;;17.30;99.90;;;;;;4942262;29;20471;-78
2022/07/17 06:21:52;;;;;;;4.10;1.70;;;17.40;99.90;;;;;;4936724;29;20420;-79
2022/07/17 06:24:40;;;;;;;4.60;2.20;;;17.40;99.90;;;;;;4859690;29;20415;-78
2022/07/17 06:27:26;;;;;;;2.70;2.00;;;17.50;99.90;;;;;;4861643;29;20519;-78
2022/07/17 06:30:13;;;;;;;6.20;2.70;;;17.50;99.90;;;;;;4884710;29;20410;-80
2022/07/17 06:33:00;;;;;;;4.37;2.30;;;17.60;99.90;;;;;;4914810;29;20404;-79
2022/07/17 06:35:46;;;;;;;2.07;1.87;;;17.60;99.90;;;;;;4824504;29;20434;-81
2022/07/17 06:38:34;;;;;;;3.37;2.30;;;17.80;99.90;;;;;;4822960;29;20453;-80
2022/07/17 06:41:18;;;;;;;2.10;1.60;;;17.90;99.90;;;;;;4827389;29;20444;-80
2022/07/17 06:44:06;;;;;;;3.80;1.97;;;18.00;99.90;;;;;;4839759;29;20410;-80
2022/07/17 06:46:53;;;;;;;3.27;1.83;;;18.00;99.90;;;;;;4839684;29;20447;-82
2022/07/17 06:49:39;;;;;;;1.57;1.40;;;18.10;99.90;;;;;;4838912;29;20846;-81
2022/07/17 06:52:43;;;;;;;1.70;1.50;;;18.10;99.90;;;;;;4839247;29;20440;-82
2022/07/17 06:55:29;;;;;;;5.50;1.67;;;18.20;99.90;;;;;;4820702;29;20424;-82
2022/07/17 06:58:15;;;;;;;4.17;1.93;;;18.20;99.90;;;;;;4806307;29;20932;-81
2022/07/17 07:01:08;;;;;;;1.70;1.60;;;18.30;99.90;;;;;;4805510;29;20494;-81
2022/07/17 07:03:52;;;;;;;2.33;2.13;;;18.40;99.90;;;;;;4832002;29;20416;-82
2022/07/17 07:06:37;;;;;;;2.73;1.80;;;18.40;99.90;;;;;;4840800;29;20898;-82
2022/07/17 07:09:25;;;;;;;6.03;2.00;;;18.50;99.90;;;;;;4867831;29;20418;-82
2022/07/17 07:12:10;;;;;;;2.80;1.83;;;18.60;99.90;;;;;;4837507;29;20394;-81
2022/07/17 07:14:59;;;;;;;3.90;2.23;;;18.70;99.90;;;;;;4886954;29;20402;-82
2022/07/17 07:17:45;;;;;;;6.30;1.70;;;18.80;99.90;;;;;;4873524;29;20504;-82
2022/07/17 07:20:51;;;;;;;2.73;1.73;;;18.80;99.90;;;;;;4832166;29;20408;-82
2022/07/17 07:23:37;;;;;;;2.37;1.30;;;18.90;99.90;;;;;;4833322;29;20416;-82
2022/07/17 07:26:22;;;;;;;2.00;1.80;;;19.00;99.90;;;;;;4839213;29;20484;-82
2022/07/17 07:29:10;;;;;;;3.50;1.30;;;19.10;99.90;;;;;;4868839;29;20443;-82
2022/07/17 07:31:58;;;;;;;2.33;1.70;;;19.10;99.90;;;;;;4895921;29;20419;-82
2022/07/17 07:34:45;;;;;;;2.20;1.80;;;19.10;99.90;;;;;;4949585;29;20399;-81
2022/07/17 07:37:30;;;;;;;5.53;1.70;;;18.90;99.90;;;;;;4961687;29;20453;-81
2022/07/17 07:40:17;;;;;;;2.90;1.20;;;18.80;99.90;;;;;;4955802;29;20494;-81
2022/07/17 07:43:04;;;;;;;4.30;1.80;;;19.10;99.90;;;;;;4934172;28;20419;-81
2022/07/17 07:45:50;;;;;;;3.97;1.40;;;19.10;99.90;;;;;;4934325;29;20419;-81
2022/07/17 07:48:37;;;;;;;2.40;1.57;;;19.20;99.90;;;;;;4947482;28;20498;-82
2022/07/17 07:51:24;;;;;;;4.93;1.90;;;19.40;99.90;;;;;;4908806;29;20481;-82
2022/07/17 07:54:08;;;;;;;1.93;1.73;;;19.30;99.90;;;;;;4909393;29;20435;-81
2022/07/17 07:56:54;;;;;;;6.00;1.50;;;19.50;99.90;;;;;;4977459;28;20429;-81
2022/07/17 07:59:38;;;;;;;2.63;1.57;;;19.60;99.90;;;;;;4941560;28;20473;-82
2022/07/17 08:02:23;;;;;;;3.57;1.57;;;19.70;99.90;;;;;;4942729;29;20495;-81
2022/07/17 08:05:08;;;;;;;2.33;1.60;;;19.90;99.90;;;;;;4976375;28;20412;-79
2022/07/17 08:07:53;;;;;;;2.70;2.50;;;20.00;99.90;;;;;;4986292;28;20439;-81
2022/07/17 08:10:39;;;;;;;3.90;1.80;;;20.20;99.90;;;;;;4971566;28;20870;-80
2022/07/17 08:13:23;;;;;;;1.83;1.47;;;20.20;99.90;;;;;;4991355;28;20939;-81
2022/07/17 08:16:09;;;;;;;1.60;1.30;;;20.30;99.90;;;;;;4992150;28;20408;-81
2022/07/17 08:18:57;;;;;;;4.37;1.33;;;20.40;99.90;;;;;;5008403;28;20466;-81
2022/07/17 08:21:47;;;;;;;2.53;1.60;;;20.50;99.90;;;;;;5055609;28;20517;-81
2022/07/17 08:24:31;;;;;;;1.60;1.43;;;20.60;99.90;;;;;;5029675;28;20558;-82
2022/07/17 08:27:16;;;;;;;3.63;1.87;;;20.70;99.90;;;;;;5024614;28;20493;-81
2022/07/17 08:30:04;;;;;;;3.47;1.50;;;20.80;99.90;;;;;;5030968;28;20876;-82
2022/07/17 08:32:50;;;;;;;2.10;1.60;;;20.80;99.90;;;;;;5018840;28;20414;-82
2022/07/17 08:35:37;;;;;;;2.10;1.90;;;20.80;99.90;;;;;;5048722;28;20382;-82
2022/07/17 08:38:23;;;;;;;1.70;1.30;;;20.80;99.90;;;;;;5031581;28;20493;-82
2022/07/17 08:41:10;;;;;;;2.60;1.40;;;20.70;99.00;;;;;;4998242;28;20454;-81
2022/07/17 08:44:00;;;;;;;3.93;1.20;;;20.70;98.90;;;;;;4984939;28;20854;-81
2022/07/17 08:46:48;;;;;;;3.00;1.20;;;20.80;97.10;;;;;;4938416;29;20506;-82
2022/07/17 08:49:37;;;;;;;6.63;1.67;;;20.80;95.70;;;;;;4946822;29;20591;-82
2022/07/17 08:52:24;;;;;;;1.43;1.30;;;21.10;99.40;;;;;;4965903;28;20760;-82
2022/07/17 08:55:30;;;;;;;2.23;1.47;;;21.00;97.90;;;;;;4968552;29;20418;-80
2022/07/17 08:58:18;;;;;;;5.30;1.90;;;20.70;95.40;;;;;;4915070;29;20696;-82
2022/07/17 09:01:04;;;;;;;4.30;1.30;;;20.60;96.30;;;;;;4914879;29;20467;-82
2022/07/17 09:04:06;;;;;;;3.93;2.17;;;20.90;95.20;;;;;;4895671;29;20507;-82
2022/07/17 09:07:12;;;;;;;1.30;1.20;;;21.00;93.20;;;;;;4912371;29;20584;-80
2022/07/17 09:09:59;;;;;;;1.93;1.40;;;20.90;93.90;;;;;;4895261;29;20967;-81
2022/07/17 09:12:49;;;;;;;2.20;1.63;;;21.10;92.50;;;;;;4860896;29;20476;-79
2022/07/17 09:15:35;;;;;;;2.27;1.50;;;21.20;92.20;;;;;;4898415;29;20444;-81
2022/07/17 09:18:55;;;;;;;3.93;1.50;;;21.40;92.40;;;;;;4902542;29;20461;-80
2022/07/17 09:21:39;;;;;;;3.67;1.90;;;21.20;91.00;;;;;;4899250;29;20929;-82
2022/07/17 09:24:24;;;;;;;2.37;1.40;;;21.30;93.00;;;;;;4921150;29;20515;-81
2022/07/17 09:27:11;;;;;;;2.60;1.60;;;21.30;91.10;;;;;;4905265;29;20435;-82
2022/07/17 09:30:11;;;;;;;3.70;2.20;;;21.50;91.50;;;;;;4915021;29;20468;-82
2022/07/17 09:32:55;;;;;;;2.03;1.70;;;21.10;90.20;;;;;;4942789;29;20463;-82
2022/07/17 09:36:05;;;;;;;3.90;1.70;;;21.30;92.00;;;;;;4941383;29;20875;-81
2022/07/17 09:38:53;;;;;;;1.77;1.30;;;21.70;92.10;;;;;;4941066;29;20798;-82
2022/07/17 09:41:37;;;;;;;1.70;1.60;;;21.90;85.10;;;;;;4950768;28;20453;-82
2022/07/17 09:44:22;;;;;;;1.67;1.50;;;21.90;85.00;;;;;;4998492;28;21033;-82
2022/07/17 09:47:06;;;;;;;5.37;1.10;;;22.10;79.50;;;;;;5041854;28;20406;-82
2022/07/17 09:49:54;;;;;;;3.20;1.50;;;22.20;78.80;;;;;;5073454;28;20553;-82
2022/07/17 09:52:38;;;;;;;1.57;1.37;;;22.30;82.00;;;;;;5037884;28;20430;-82
2022/07/17 09:55:29;;;;;;;4.13;1.97;;;22.40;77.20;;;;;;5038097;28;20441;-82
2022/07/17 09:58:14;;;;;;;2.77;1.60;;;22.20;77.20;;;;;;5037411;28;20430;-82
2022/07/17 10:01:00;;;;;;;1.53;1.17;;;21.80;77.70;;;;;;5045104;28;20600;-83
2022/07/17 10:03:45;;;;;;;1.63;1.13;;;22.00;80.00;;;;;;5042655;28;20401;-82
2022/07/17 10:06:29;;;;;;;1.50;1.30;;;22.20;78.70;;;;;;5056107;28;20406;-82
2022/07/17 10:09:13;;;;;;;1.53;1.43;;;22.20;71.60;;;;;;5055781;28;20449;-82
2022/07/17 10:11:58;;;;;;;2.43;1.80;;;22.00;70.30;;;;;;5056811;28;20416;-82
2022/07/17 10:14:48;;;;;;;3.93;1.40;;;22.10;73.40;;;;;;5043356;28;20470;-82
2022/07/17 10:17:32;;;;;;;1.60;1.23;;;22.30;71.20;;;;;;5058881;28;20525;-80
2022/07/17 10:20:24;;;;;;;2.90;1.77;;;22.70;75.00;;;;;;5043634;28;20449;-80
2022/07/17 10:23:14;;;;;;;2.17;1.27;;;23.20;71.60;;;;;;5062088;28;20420;-78
2022/07/17 10:25:59;;;;;;;3.13;1.40;;;23.20;64.80;;;;;;5105484;28;20479;-80
2022/07/17 10:28:46;;;;;;;1.83;1.30;;;23.20;61.20;;;;;;5087085;28;20498;-83
2022/07/17 10:31:31;;;;;;;4.93;1.90;;;23.20;61.20;;;;;;5104191;28;20376;-82
2022/07/17 10:34:15;;;;;;;1.97;1.50;;;23.40;64.50;;;;;;5089278;28;20388;-83
2022/07/17 10:36:59;;;;;;;4.27;2.67;;;23.60;66.30;;;;;;5103371;28;20466;-81
2022/07/17 10:40:04;;;;;;;1.27;1.17;;;23.90;67.50;;;;;;5103972;28;20384;-82
2022/07/17 10:42:58;;;;;;;3.50;2.00;;;24.10;61.50;;;;;;5105383;28;20439;-81
2022/07/17 10:45:45;;;;;;;1.93;1.43;;;24.20;58.90;;;;;;5106506;28;20399;-81
2022/07/17 10:48:30;;;;;;;2.47;1.70;;;24.40;66.90;;;;;;5091420;28;20554;-83
2022/07/17 10:51:16;;;;;;;2.03;1.40;;;24.50;58.60;;;;;;5108621;28;20385;-81
2022/07/17 10:54:00;;;;;;;2.90;1.40;;;24.40;59.00;;;;;;5109441;28;20414;-79
2022/07/17 10:56:45;;;;;;;1.73;1.40;;;24.20;55.10;;;;;;5108502;28;20443;-80
2022/07/17 10:59:29;;;;;;;1.30;1.20;;;24.60;55.80;;;;;;5097886;28;20392;-83
2022/07/17 11:02:14;;;;;;;1.37;1.27;;;24.80;54.50;;;;;;5111547;28;20474;-80
2022/07/17 11:05:08;;;;;;;3.20;1.50;;;24.10;54.50;;;;;;5109084;28;20426;-80
2022/07/17 11:07:56;;;;;;;2.33;1.50;;;23.70;53.10;;;;;;5106165;28;20444;-81
2022/07/17 11:10:40;;;;;;;1.40;1.30;;;24.00;54.80;;;;;;5076807;28;20391;-83
2022/07/17 11:13:25;;;;;;;2.70;1.20;;;24.50;53.90;;;;;;5093125;28;20445;-80
2022/07/17 11:16:09;;;;;;;2.63;1.20;;;24.70;52.30;;;;;;5109125;28;20395;-82
2022/07/17 11:18:55;;;;;;;2.73;1.40;;;24.40;51.80;;;;;;5108774;28;20464;-82
2022/07/17 11:21:48;;;;;;;2.40;1.57;;;24.90;49.90;;;;;;5101619;28;20389;-81
2022/07/17 11:24:46;;;;;;;4.40;1.60;;;25.20;53.30;;;;;;5086847;28;20468;-82
2022/07/17 11:27:31;;;;;;;1.30;1.20;;;24.90;50.30;;;;;;5101843;28;20482;-83
2022/07/17 11:30:19;;;;;;;1.97;1.40;;;25.20;52.40;;;;;;5088517;28;20456;-83
2022/07/17 11:33:14;;;;;;;2.23;1.40;;;25.70;50.10;;;;;;5104134;28;20407;-83
2022/07/17 11:35:59;;;;;;;2.30;1.40;;;25.70;48.00;;;;;;5089546;28;20392;-83
2022/07/17 11:38:43;;;;;;;1.70;1.53;;;25.50;50.00;;;;;;5087973;28;20809;-83
2022/07/17 11:41:35;;;;;;;2.50;1.77;;;26.10;53.90;;;;;;5103086;28;20468;-82
2022/07/17 11:44:24;;;;;;;1.93;1.37;;;25.10;49.00;;;;;;5088938;28;20426;-83
2022/07/17 11:47:09;;;;;;;3.20;1.63;;;25.20;50.00;;;;;;5107282;28;20384;-82
2022/07/17 11:50:14;;;;;;;2.30;1.30;;;25.30;50.00;;;;;;5110015;28;20396;-82
2022/07/17 11:53:30;;;;;;;1.57;1.40;;;25.30;49.50;;;;;;5074683;28;20424;-82
2022/07/17 11:56:21;;;;;;;2.53;1.40;;;25.80;51.30;;;;;;5070228;28;20455;-83
2022/07/17 11:59:07;;;;;;;7.00;2.07;;;26.80;50.80;;;;;;5085621;28;20396;-82
2022/07/17 12:01:52;;;;;;;2.77;1.80;;;26.10;48.80;;;;;;5085074;28;20475;-81
2022/07/17 12:04:48;;;;;;;2.20;1.20;;;25.50;49.20;;;;;;5071452;28;20418;-82
2022/07/17 12:07:43;;;;;;;2.43;1.33;;;25.20;49.50;;;;;;5085525;28;20455;-82
2022/07/17 12:10:30;;;;;;;1.87;1.40;;;25.30;48.10;;;;;;5070949;28;20389;-81
2022/07/17 12:13:14;;;;;;;1.30;1.20;;;26.10;50.70;;;;;;5082000;28;20412;-83
2022/07/17 12:15:59;;;;;;;1.57;1.47;;;26.90;52.30;;;;;;5085078;28;20519;-82
2022/07/17 12:18:43;;;;;;;2.80;2.60;;;27.50;53.50;;;;;;5059810;28;20407;-81
2022/07/17 12:21:28;;;;;;;1.43;1.20;;;26.80;49.50;;;;;;5077853;28;20460;-81
2022/07/17 12:24:21;;;;;;;1.97;1.40;;;26.40;45.30;;;;;;5100763;28;20415;-81
2022/07/17 12:27:10;;;;;;;1.57;1.47;;;26.00;46.70;;;;;;5099974;28;20457;-81
2022/07/17 12:29:55;;;;;;;1.83;1.30;;;26.60;48.90;;;;;;5097150;28;20438;-81
2022/07/17 12:32:41;;;;;;;1.63;1.40;;;26.20;48.90;;;;;;5077964;28;20395;-81
2022/07/17 12:35:28;;;;;;;3.43;1.50;;;27.00;47.90;;;;;;5105313;28;20395;-81
2022/07/17 12:38:14;;;;;;;1.45;1.35;;;28.00;46.30;;;;;;5091194;28;20433;-81
2022/07/17 12:40:59;;;;;;;2.20;1.20;;;28.70;47.20;;;;;;5103816;28;20199;-81
2022/07/17 12:43:44;;;;;;;2.30;2.10;;;29.50;42.20;;;;;;5104467;28;20245;-80
2022/07/17 12:46:28;;;;;;;1.70;1.60;;;29.60;42.80;;;;;;5102652;28;20180;-83
2022/07/17 12:49:12;;;;;;;1.73;1.50;;;28.70;43.10;;;;;;5101832;28;20273;-83
2022/07/17 12:51:57;;;;;;;3.78;2.13;;;28.70;46.50;;;;;;5103250;28;20169;-83
2022/07/17 12:54:41;;;;;;;1.70;1.60;;;29.60;47.20;;;;;;5086013;28;20226;-83
2022/07/17 12:57:26;;;;;;;2.00;1.67;;;28.20;48.10;;;;;;5086746;28;20200;-81
2022/07/17 13:00:12;;;;;;;2.95;1.52;;;28.20;47.70;;;;;;5106773;28;20184;-82
2022/07/17 13:02:56;;;;;;;5.28;1.98;;;28.60;45.80;;;;;;5091368;28;20227;-83
2022/07/17 13:05:43;;;;;;;4.95;2.03;;;29.30;45.80;;;;;;5076772;28;20169;-83
2022/07/17 13:08:32;;;;;;;1.73;1.63;;;30.00;46.40;;;;;;5064005;28;20297;-81
2022/07/17 13:11:18;;;;;;;2.08;1.92;;;28.60;43.80;;;;;;5097037;28;20183;-78
2022/07/17 13:14:06;;;;;;;3.03;1.63;;;29.40;45.40;;;;;;5098501;28;20233;-81
2022/07/17 13:17:11;;;;;;;1.40;1.20;;;29.60;45.90;;;;;;5098585;28;20209;-79
2022/07/17 13:20:16;;;;;;;1.58;1.42;;;31.20;41.20;;;;;;5007215;28;20225;-81
2022/07/17 13:23:20;;;;;;;2.05;1.60;;;31.00;39.10;;;;;;5009275;28;20196;-80
2022/07/17 13:26:06;;;;;;;4.18;1.20;;;29.10;41.20;;;;;;4912222;29;20191;-80
2022/07/17 13:29:12;;;;;;;2.53;1.58;;;29.80;42.40;;;;;;4894686;29;20401;-82
2022/07/17 13:31:59;;;;;;;5.63;1.45;;;31.10;41.60;;;;;;4892208;29;20219;-82
2022/07/17 13:34:45;;;;;;;1.67;1.38;;;31.00;42.40;;;;;;4880458;29;20187;-82
2022/07/17 13:37:30;;;;;;;1.40;1.30;;;31.50;38.70;;;;;;4892544;29;20245;-82
2022/07/17 13:40:20;;;;;;;1.88;1.60;;;31.10;39.30;;;;;;4868637;29;20197;-82
2022/07/17 13:43:05;;;;;;;1.73;1.40;;;32.10;37.80;;;;;;4853582;29;20270;-82
2022/07/17 13:45:51;;;;;;;2.95;1.60;;;31.80;37.50;;;;;;4837510;29;20193;-82
2022/07/17 13:48:35;;;;;;;2.08;1.48;;;31.80;41.50;;;;;;4837472;29;20181;-82
2022/07/17 13:51:21;;;;;;;5.07;1.67;;;32.10;40.40;;;;;;4882123;29;20187;-82
2022/07/17 13:54:06;;;;;;;2.42;1.65;;;31.70;38.80;;;;;;4893122;29;20262;-82
2022/07/17 13:57:11;;;;;;;1.50;1.40;;;29.80;38.20;;;;;;4945272;28;20728;-82
2022/07/17 14:00:00;;;;;;;3.15;1.50;;;31.10;38.00;;;;;;4982884;28;20190;-81
2022/07/17 14:02:45;;;;;;;1.80;1.50;;;30.40;39.40;;;;;;4931266;29;20190;-81
2022/07/17 14:06:02;;;;;;;1.48;1.10;;;31.40;42.30;;;;;;4944340;29;20203;-82
2022/07/17 14:09:08;;;;;;;3.10;1.20;;;32.20;42.80;;;;;;4907965;29;20737;-82
2022/07/17 14:12:16;;;;;;;1.63;1.52;;;31.40;40.00;;;;;;4866848;29;20311;-82
2022/07/17 14:15:00;;;;;;;1.40;1.25;;;29.20;38.40;;;;;;4825022;29;20215;-80
2022/07/17 14:17:45;;;;;;;2.28;1.40;;;28.80;40.30;;;;;;4818387;29;20360;-82
2022/07/17 14:20:29;;;;;;;1.40;1.30;;;29.40;40.50;;;;;;4819243;29;20713;-82
2022/07/17 14:23:14;;;;;;;1.90;1.60;;;29.60;42.00;;;;;;4819288;29;20191;-80
2022/07/17 14:25:58;;;;;;;4.78;1.83;;;28.50;38.50;;;;;;4819305;29;20195;-81
2022/07/17 14:28:43;;;;;;;1.38;1.27;;;28.90;40.70;;;;;;4804370;29;20271;-82
2022/07/17 14:31:28;;;;;;;2.08;1.70;;;29.20;38.40;;;;;;4801441;29;20208;-82
2022/07/17 14:34:13;;;;;;;2.63;1.70;;;30.20;41.60;;;;;;4832336;29;20193;-82
2022/07/17 14:36:57;;;;;;;1.83;1.50;;;30.30;45.80;;;;;;4839855;29;20552;-82
2022/07/17 14:39:43;;;;;;;1.42;1.33;;;29.70;38.90;;;;;;4837272;29;20288;-83
2022/07/17 14:42:28;;;;;;;2.92;1.80;;;29.60;40.50;;;;;;4870722;29;20245;-82